Time;durP1;ratioP1;P1;durP2;ratioP2;P2;SDS_P1;SDS_P2;PMS_P1;PMS_P2;Temp;Humidity;BMP_temperature;BMP_pressure;BME280_temperature;BME280_humidity;BME280_pressure;Samples;Min_cycle;Max_cycle;Signal;HPM_P1;HPM_P2
2023/08/31 00:00:49;;;;;;;5.10;2.97;;;;;;;11.42;96.94;100575.88;5070769;28;20036;-78
2023/08/31 00:03:16;;;;;;;3.67;3.15;;;;;;;11.37;96.93;100574.63;5071422;28;20036;-79
2023/08/31 00:05:42;;;;;;;5.78;3.38;;;;;;;11.33;97.77;100575.28;5074269;28;20168;-78
2023/08/31 00:08:08;;;;;;;5.57;3.22;;;;;;;11.38;97.29;100573.59;5078532;28;20028;-78
2023/08/31 00:10:36;;;;;;;4.10;3.30;;;;;;;11.27;97.86;100568.84;5089154;28;20046;-79
2023/08/31 00:13:06;;;;;;;4.68;3.15;;;;;;;11.19;98.15;100575.28;5072663;28;20032;-79
2023/08/31 00:15:32;;;;;;;9.50;3.47;;;;;;;11.10;98.80;100578.41;5069346;28;20487;-79
2023/08/31 00:17:58;;;;;;;4.47;2.97;;;;;;;11.09;98.75;100582.13;5070997;28;20032;-79
2023/08/31 00:20:24;;;;;;;3.72;3.15;;;;;;;11.04;99.43;100574.66;5071286;28;20166;-79
2023/08/31 00:22:49;;;;;;;5.15;3.15;;;;;;;11.05;99.03;100576.31;5070095;28;20040;-79
2023/08/31 00:25:14;;;;;;;4.65;3.15;;;;;;;10.95;99.48;100574.03;5067197;28;20032;-79
2023/08/31 00:27:40;;;;;;;3.75;3.10;;;;;;;10.96;99.45;100573.00;5068826;28;20024;-78
2023/08/31 00:30:08;;;;;;;4.28;2.80;;;;;;;10.80;100.00;100576.94;5068591;28;20028;-79
2023/08/31 00:32:34;;;;;;;4.38;2.92;;;;;;;10.77;100.00;100569.25;5071804;28;20109;-79
2023/08/31 00:34:59;;;;;;;3.25;2.90;;;;;;;10.73;100.00;100576.91;5071020;28;20028;-79
2023/08/31 00:37:25;;;;;;;4.82;3.10;;;;;;;10.72;100.00;100583.34;5069744;28;20551;-79
2023/08/31 00:39:52;;;;;;;4.68;3.20;;;;;;;10.72;100.00;100583.34;5068670;28;20469;-78
2023/08/31 00:42:20;;;;;;;3.38;2.83;;;;;;;10.71;100.00;100581.69;5048660;28;20028;-79
2023/08/31 00:44:49;;;;;;;4.68;3.10;;;;;;;10.72;100.00;100579.81;5069718;28;20029;-79
2023/08/31 00:47:15;;;;;;;4.63;3.17;;;;;;;10.66;100.00;100575.25;5070179;28;20029;-79
2023/08/31 00:49:40;;;;;;;4.90;3.00;;;;;;;10.52;100.00;100577.91;5045364;28;20032;-79
2023/08/31 00:52:06;;;;;;;3.95;3.20;;;;;;;10.51;100.00;100580.81;5049499;28;20037;-79
2023/08/31 00:54:32;;;;;;;3.95;3.10;;;;;;;10.40;100.00;100584.91;5064935;28;20111;-79
2023/08/31 00:56:57;;;;;;;4.05;3.25;;;;;;;10.33;100.00;100579.47;5044364;28;20098;-79
2023/08/31 00:59:24;;;;;;;4.75;3.10;;;;;;;10.31;100.00;100578.84;5071530;28;20130;-79
2023/08/31 01:01:55;;;;;;;5.53;3.40;;;;;;;10.36;100.00;100573.69;5067623;28;20027;-79
2023/08/31 01:04:33;;;;;;;3.42;3.10;;;;;;;10.33;100.00;100574.09;5067832;28;20032;-79
2023/08/31 01:07:09;;;;;;;5.35;3.30;;;;;;;10.32;100.00;100575.13;5045747;28;20027;-79
2023/08/31 01:09:39;;;;;;;5.78;3.58;;;;;;;10.28;100.00;100577.41;5048099;28;20480;-79
2023/08/31 01:12:29;;;;;;;4.65;3.35;;;;;;;10.29;100.00;100575.53;5050304;28;20020;-79
2023/08/31 01:14:59;;;;;;;5.60;3.42;;;;;;;10.23;100.00;100573.66;5054988;28;20032;-78
2023/08/31 01:17:26;;;;;;;5.85;3.30;;;;;;;10.22;100.00;100577.38;5048502;28;20025;-79
2023/08/31 01:19:52;;;;;;;5.93;3.45;;;;;;;10.18;100.00;100570.75;5031303;28;20025;-78
2023/08/31 01:22:48;;;;;;;7.18;4.57;;;;;;;10.18;100.00;100563.47;5048264;28;20095;-79
2023/08/31 01:25:13;;;;;;;5.10;4.03;;;;;;;10.08;100.00;100566.53;5036975;28;20408;-79
2023/08/31 01:27:42;;;;;;;6.35;4.28;;;;;;;10.08;100.00;100568.41;5069260;28;20025;-79
2023/08/31 01:30:08;;;;;;;5.00;4.32;;;;;;;10.05;100.00;100572.34;5050540;28;20036;-79
2023/08/31 01:32:33;;;;;;;5.85;4.30;;;;;;;10.10;100.00;100569.06;5068626;28;20029;-79
2023/08/31 01:35:00;;;;;;;5.70;4.70;;;;;;;10.08;100.00;100574.63;5069526;28;20035;-78
2023/08/31 01:37:38;;;;;;;5.80;4.90;;;;;;;10.04;100.00;100576.06;5048810;28;20128;-79
2023/08/31 01:40:26;;;;;;;8.55;5.57;;;;;;;10.08;100.00;100576.50;5063205;28;20050;-79
2023/08/31 01:42:52;;;;;;;5.65;5.05;;;;;;;10.02;100.00;100583.50;5056572;28;20037;-79
2023/08/31 01:45:22;;;;;;;7.90;6.22;;;;;;;10.06;100.00;100590.13;5034750;28;20036;-79
2023/08/31 01:47:47;;;;;;;6.22;5.43;;;;;;;10.02;100.00;100600.44;5051467;28;20048;-79
2023/08/31 01:50:13;;;;;;;7.55;5.82;;;;;;;9.93;100.00;100590.06;5052123;28;20024;-79
2023/08/31 01:52:38;;;;;;;7.28;5.82;;;;;;;10.00;100.00;100588.25;5070659;28;20024;-79
2023/08/31 01:55:05;;;;;;;8.05;6.15;;;;;;;10.07;100.00;100586.41;5066608;28;20174;-79
2023/08/31 01:57:31;;;;;;;8.10;6.28;;;;;;;10.01;100.00;100588.03;5047466;28;20086;-79
2023/08/31 01:59:57;;;;;;;8.88;7.30;;;;;;;9.99;100.00;100586.59;5070236;22;20060;-79
2023/08/31 02:02:22;;;;;;;8.02;7.22;;;;;;;10.04;100.00;100586.81;5068423;28;20033;-79
2023/08/31 02:04:51;;;;;;;9.75;7.78;;;;;;;10.05;100.00;100588.50;5069980;28;20055;-79
2023/08/31 02:07:16;;;;;;;8.50;7.30;;;;;;;9.96;100.00;100585.13;5068102;28;20024;-79
2023/08/31 02:09:42;;;;;;;10.15;7.90;;;;;;;9.93;100.00;100590.91;5070682;28;20063;-79
2023/08/31 02:12:09;;;;;;;11.88;7.80;;;;;;;9.95;100.00;100588.00;5071256;28;20020;-79
2023/08/31 02:14:35;;;;;;;9.40;7.85;;;;;;;9.93;100.00;100587.38;5064537;28;20025;-79
2023/08/31 02:17:00;;;;;;;9.85;8.27;;;;;;;9.88;100.00;100584.47;5066416;28;20032;-79
2023/08/31 02:19:25;;;;;;;12.95;9.25;;;;;;;9.78;100.00;100587.53;5069435;28;20046;-79
2023/08/31 02:21:51;;;;;;;10.98;9.43;;;;;;;9.69;100.00;100592.22;5062690;28;20031;-79
2023/08/31 02:24:16;;;;;;;10.48;9.20;;;;;;;9.78;100.00;100588.34;5068318;28;20039;-79
2023/08/31 02:26:42;;;;;;;10.20;9.18;;;;;;;9.78;100.00;100588.34;5070928;28;20074;-79
2023/08/31 02:29:07;;;;;;;11.15;9.90;;;;;;;9.77;100.00;100575.09;5069591;28;20423;-79
2023/08/31 02:31:32;;;;;;;12.40;9.93;;;;;;;9.70;100.00;100583.13;5070066;28;20086;-79
2023/08/31 02:33:58;;;;;;;12.02;9.55;;;;;;;9.78;100.00;100588.34;5069442;28;20044;-78
2023/08/31 02:36:23;;;;;;;10.85;9.38;;;;;;;9.79;100.00;100592.69;5066930;28;20024;-79
2023/08/31 02:38:50;;;;;;;10.55;9.30;;;;;;;9.89;100.00;100588.78;5069352;28;20526;-78
2023/08/31 02:41:16;;;;;;;11.93;9.40;;;;;;;9.90;100.00;100582.38;5070029;28;20036;-79
2023/08/31 02:43:42;;;;;;;12.82;9.80;;;;;;;9.94;100.00;100576.44;5072488;28;20032;-79
2023/08/31 02:46:07;;;;;;;10.73;9.63;;;;;;;9.96;100.00;100582.44;5073971;28;20493;-79
2023/08/31 02:48:32;;;;;;;11.15;9.13;;;;;;;10.02;100.00;100583.50;5072098;28;20033;-79
2023/08/31 02:51:00;;;;;;;10.85;9.40;;;;;;;10.01;100.00;100581.84;5073510;28;20024;-79
2023/08/31 02:53:27;;;;;;;13.68;9.93;;;;;;;9.98;100.00;100590.31;5072566;28;20060;-79
2023/08/31 02:55:52;;;;;;;13.18;9.45;;;;;;;9.95;100.00;100588.00;5074268;28;20116;-79
2023/08/31 02:58:18;;;;;;;10.48;9.23;;;;;;;9.92;100.00;100593.78;5073595;28;20016;-79
2023/08/31 03:00:47;;;;;;;10.93;9.50;;;;;;;9.95;100.00;100594.22;5065747;28;20120;-79
2023/08/31 03:03:13;;;;;;;10.15;9.00;;;;;;;10.00;100.00;100596.31;5073740;28;20111;-79
2023/08/31 03:05:38;;;;;;;12.45;9.38;;;;;;;9.94;100.00;100597.09;5072535;28;20028;-79
2023/08/31 03:08:04;;;;;;;10.77;9.38;;;;;;;9.89;100.00;100589.63;5072740;28;20043;-79
2023/08/31 03:10:30;;;;;;;11.40;9.43;;;;;;;9.93;100.00;100596.28;5072077;28;20495;-79
2023/08/31 03:12:55;;;;;;;13.75;10.10;;;;;;;9.93;100.00;100590.06;5074836;28;20066;-79
2023/08/31 03:15:21;;;;;;;10.75;9.63;;;;;;;9.83;100.00;100590.41;5073446;28;20033;-79
2023/08/31 03:17:46;;;;;;;12.98;10.90;;;;;;;9.71;100.00;100593.69;5071789;28;20033;-79
2023/08/31 03:20:12;;;;;;;11.77;10.55;;;;;;;9.65;100.00;100593.63;5073756;28;20032;-79
2023/08/31 03:22:37;;;;;;;13.98;10.82;;;;;;;9.64;100.00;100586.59;5068944;22;20133;-79
2023/08/31 03:25:03;;;;;;;12.77;10.35;;;;;;;9.69;100.00;100584.16;5060529;28;20035;-79
2023/08/31 03:27:28;;;;;;;12.43;10.73;;;;;;;9.68;100.00;100582.50;5073620;28;20033;-78
2023/08/31 03:29:53;;;;;;;12.30;10.63;;;;;;;9.79;100.00;100586.50;5059482;28;20013;-79
2023/08/31 03:32:19;;;;;;;11.73;10.10;;;;;;;9.76;100.00;100586.88;5055887;28;20075;-79
2023/08/31 03:34:47;;;;;;;12.85;10.57;;;;;;;9.86;100.00;100590.03;5052398;28;20087;-79
2023/08/31 03:37:12;;;;;;;12.88;10.52;;;;;;;9.81;100.00;100589.78;5053404;28;20389;-79
2023/08/31 03:39:40;;;;;;;12.63;10.38;;;;;;;9.83;100.00;100604.72;5047853;28;20033;-79
2023/08/31 03:42:05;;;;;;;12.43;10.65;;;;;;;9.75;100.00;100602.16;5050523;28;20572;-79
2023/08/31 03:44:31;;;;;;;15.05;11.50;;;;;;;9.82;100.00;100597.66;5052666;28;20515;-78
2023/08/31 03:46:56;;;;;;;13.18;10.95;;;;;;;9.95;100.00;100588.00;5050411;28;20440;-78
2023/08/31 03:49:21;;;;;;;12.65;11.23;;;;;;;10.02;100.00;100591.56;5047504;28;20044;-78
2023/08/31 03:51:47;;;;;;;12.38;10.73;;;;;;;10.01;100.00;100592.59;5053099;28;20090;-81
2023/08/31 03:54:12;;;;;;;13.88;10.93;;;;;;;10.01;100.00;100592.59;5047119;28;20029;-79
2023/08/31 03:56:38;;;;;;;12.48;10.80;;;;;;;10.10;100.00;100598.63;5053127;28;20166;-79
2023/08/31 03:59:04;;;;;;;13.30;11.43;;;;;;;9.94;100.00;100597.09;5051353;28;20033;-78
2023/08/31 04:01:30;;;;;;;17.52;11.40;;;;;;;9.95;100.00;100594.22;5048429;28;20031;-79
2023/08/31 04:03:56;;;;;;;14.30;10.98;;;;;;;10.04;100.00;100594.91;5052164;28;20027;-79
2023/08/31 04:06:21;;;;;;;14.73;12.23;;;;;;;10.02;100.00;100595.06;5052463;28;20381;-79
2023/08/31 04:08:46;;;;;;;15.07;11.88;;;;;;;10.01;100.00;100596.09;5051272;28;20052;-79
2023/08/31 04:11:12;;;;;;;14.27;11.68;;;;;;;10.08;100.00;100593.44;5052491;28;20021;-79
2023/08/31 04:13:37;;;;;;;14.57;11.95;;;;;;;10.19;100.00;100591.22;5049823;28;20032;-79
2023/08/31 04:16:03;;;;;;;17.17;12.52;;;;;;;10.23;100.00;100587.94;5048015;28;20529;-79
2023/08/31 04:18:28;;;;;;;16.40;12.68;;;;;;;10.16;100.00;100595.13;5051846;28;20471;-79
2023/08/31 04:20:54;;;;;;;14.90;13.18;;;;;;;10.15;100.00;100597.00;5049937;28;20029;-79
2023/08/31 04:23:19;;;;;;;18.40;13.30;;;;;;;10.14;100.00;100599.91;5062204;28;20040;-79
2023/08/31 04:25:48;;;;;;;19.83;14.13;;;;;;;10.20;100.00;100596.41;5067702;28;20131;-79
2023/08/31 04:28:13;;;;;;;17.05;13.50;;;;;;;10.35;100.00;100598.94;5070491;28;20443;-79
2023/08/31 04:30:40;;;;;;;18.63;13.73;;;;;;;10.41;100.00;100595.44;5068974;28;20024;-79
2023/08/31 04:33:06;;;;;;;15.55;13.65;;;;;;;10.35;100.00;100598.94;5070988;28;20480;-79
2023/08/31 04:35:31;;;;;;;16.83;13.68;;;;;;;10.45;100.00;100604.78;5070465;28;20047;-79
2023/08/31 04:37:57;;;;;;;18.38;13.75;;;;;;;10.44;100.00;100608.50;5069638;28;20028;-79
2023/08/31 04:40:22;;;;;;;16.48;13.77;;;;;;;10.46;100.00;100605.63;5072002;28;20090;-79
2023/08/31 04:42:48;;;;;;;15.70;13.02;;;;;;;10.51;100.00;100610.41;5070825;28;20032;-79
2023/08/31 04:45:17;;;;;;;16.13;13.05;;;;;;;10.45;100.00;100615.56;5071063;28;20033;-79
2023/08/31 04:47:42;;;;;;;20.15;14.00;;;;;;;10.38;100.00;100614.72;5059731;28;20477;-78
2023/08/31 04:50:08;;;;;;;18.15;15.10;;;;;;;10.38;100.00;100613.84;5060775;28;20024;-78
2023/08/31 04:52:33;;;;;;;16.38;13.70;;;;;;;10.48;100.00;100616.19;5059736;28;20483;-79
2023/08/31 04:55:00;;;;;;;16.92;13.85;;;;;;;10.55;100.00;100623.25;5061619;28;20059;-79
2023/08/31 04:57:26;;;;;;;16.90;13.93;;;;;;;10.52;100.00;100628.22;5064792;28;20024;-79
2023/08/31 04:59:51;;;;;;;17.55;13.38;;;;;;;10.59;100.00;100631.78;5062975;28;20465;-79
2023/08/31 05:02:17;;;;;;;18.45;13.15;;;;;;;10.51;100.00;100635.44;5063272;28;20473;-79
2023/08/31 05:04:42;;;;;;;16.17;12.95;;;;;;;10.47;100.00;100631.53;5065919;28;20016;-79
2023/08/31 05:07:07;;;;;;;18.27;13.27;;;;;;;10.55;100.00;100634.00;5064411;28;20537;-79
2023/08/31 05:09:34;;;;;;;15.73;12.85;;;;;;;10.52;100.00;100647.06;5068059;28;20032;-80
2023/08/31 05:12:02;;;;;;;18.23;13.55;;;;;;;10.49;100.00;100642.06;5066954;28;20032;-78
2023/08/31 05:14:27;;;;;;;17.77;13.70;;;;;;;10.59;100.00;100637.97;5065696;28;20036;-80
2023/08/31 05:16:52;;;;;;;17.75;13.05;;;;;;;10.67;100.00;100633.44;5048669;28;20048;-78
2023/08/31 05:19:18;;;;;;;15.30;12.77;;;;;;;10.68;100.00;100637.81;5066613;28;20058;-80
2023/08/31 05:21:44;;;;;;;14.30;12.77;;;;;;;10.72;100.00;100642.56;5066541;28;20029;-80
2023/08/31 05:24:09;;;;;;;16.27;13.07;;;;;;;10.74;100.00;100650.44;5063824;28;20035;-80
2023/08/31 05:26:35;;;;;;;15.40;12.52;;;;;;;10.66;100.00;100659.53;5059871;28;20016;-82
2023/08/31 05:29:00;;;;;;;14.65;12.57;;;;;;;10.60;100.00;100657.63;5064574;28;20884;-82
2023/08/31 05:31:26;;;;;;;14.70;13.10;;;;;;;10.66;100.00;100654.13;5060700;28;20334;-82
2023/08/31 05:33:51;;;;;;;16.85;13.40;;;;;;;10.77;100.00;100656.22;5069714;28;20036;-79
2023/08/31 05:36:17;;;;;;;15.27;12.68;;;;;;;10.82;100.00;100657.50;5066721;28;20033;-77
2023/08/31 05:38:42;;;;;;;18.58;12.55;;;;;;;10.93;100.00;100665.00;5057718;28;20157;-78
2023/08/31 05:41:07;;;;;;;15.73;11.90;;;;;;;11.04;100.00;100667.06;5066933;28;20040;-77
2023/08/31 05:43:36;;;;;;;14.57;11.80;;;;;;;11.07;100.00;100668.53;5065914;28;20061;-78
2023/08/31 05:46:02;;;;;;;13.52;12.07;;;;;;;11.13;100.00;100669.56;5043203;28;20033;-77
2023/08/31 05:48:28;;;;;;;13.73;11.82;;;;;;;11.15;100.00;100667.50;5062410;28;20094;-74
2023/08/31 05:50:54;;;;;;;13.75;12.02;;;;;;;11.11;100.00;100672.47;5058836;28;21736;-75
2023/08/31 05:53:19;;;;;;;15.93;13.00;;;;;;;11.01;100.00;100677.44;5055951;28;20041;-76
2023/08/31 05:55:45;;;;;;;16.30;12.13;;;;;;;11.12;100.00;100690.28;5056966;28;20392;-75
2023/08/31 05:58:10;;;;;;;15.48;12.52;;;;;;;11.13;100.00;100686.56;5067136;28;20034;-75
2023/08/31 06:00:36;;;;;;;16.27;12.50;;;;;;;11.11;100.00;100690.50;5063028;28;20025;-75
2023/08/31 06:03:04;;;;;;;15.55;12.70;;;;;;;11.03;100.00;100697.75;5054962;28;20025;-75
2023/08/31 06:05:31;;;;;;;14.57;12.13;;;;;;;11.12;100.00;100690.28;5061193;28;20112;-75
2023/08/31 06:07:56;;;;;;;15.43;12.45;;;;;;;11.14;100.00;100687.38;5063215;28;20170;-76
2023/08/31 06:10:23;;;;;;;15.38;13.13;;;;;;;11.15;100.00;100691.75;5061246;28;20515;-75
2023/08/31 06:12:49;;;;;;;16.77;12.77;;;;;;;11.13;100.00;100693.81;5060347;28;20037;-75
2023/08/31 06:15:15;;;;;;;15.80;12.73;;;;;;;11.16;100.00;100694.25;5058307;28;20469;-75
2023/08/31 06:17:41;;;;;;;16.17;12.60;;;;;;;11.32;100.00;100701.09;5065902;28;20039;-78
2023/08/31 06:20:08;;;;;;;16.88;13.82;;;;;;;11.30;100.00;100689.69;5063857;28;20025;-76
2023/08/31 06:22:33;;;;;;;17.38;13.50;;;;;;;11.38;100.00;100699.47;5062515;28;20060;-77
2023/08/31 06:24:59;;;;;;;17.55;13.10;;;;;;;11.51;100.00;100699.47;5066423;28;20028;-78
2023/08/31 06:27:25;;;;;;;14.82;12.65;;;;;;;11.67;100.00;100706.28;5054390;28;20039;-78
2023/08/31 06:29:50;;;;;;;15.57;13.43;;;;;;;11.68;100.00;100707.94;5072374;28;20472;-78
2023/08/31 06:32:16;;;;;;;17.23;13.98;;;;;;;11.47;100.00;100705.47;5072475;28;20358;-80
2023/08/31 06:34:41;;;;;;;16.63;13.80;;;;;;;11.51;100.00;100706.72;5072475;28;20020;-77
2023/08/31 06:37:07;;;;;;;15.60;13.93;;;;;;;11.57;100.00;100713.13;5071678;28;20024;-78
2023/08/31 06:39:33;;;;;;;15.48;13.05;;;;;;;11.64;100.00;100720.22;5072781;28;20156;-77
2023/08/31 06:41:58;;;;;;;16.15;13.98;;;;;;;11.44;100.00;100722.88;5071075;28;20025;-79
2023/08/31 06:44:24;;;;;;;19.15;14.45;;;;;;;11.46;100.00;100718.13;5068494;28;20029;-77
2023/08/31 06:46:49;;;;;;;16.92;14.25;;;;;;;11.59;100.00;100722.69;5074919;28;20016;-80
2023/08/31 06:49:15;;;;;;;16.48;14.52;;;;;;;11.75;100.00;100715.22;5087083;28;20122;-78
2023/08/31 06:51:40;;;;;;;15.40;13.80;;;;;;;11.92;100.00;100719.16;5077054;28;20043;-78
2023/08/31 06:54:06;;;;;;;16.08;13.60;;;;;;;12.21;100.00;100727.84;5073839;28;20036;-78
2023/08/31 06:56:37;;;;;;;15.38;12.95;;;;;;;12.23;100.00;100723.06;5073522;28;20064;-78
2023/08/31 06:59:03;;;;;;;15.23;12.85;;;;;;;12.50;100.00;100719.47;5070532;28;20029;-79
2023/08/31 07:01:29;;;;;;;17.23;13.55;;;;;;;12.79;100.00;100718.09;5073157;28;20104;-78
2023/08/31 07:03:54;;;;;;;14.65;12.88;;;;;;;12.95;100.00;100721.34;5073148;28;20140;-79
2023/08/31 07:06:20;;;;;;;13.50;11.93;;;;;;;13.41;97.16;100722.13;5071958;28;20090;-78
2023/08/31 07:08:47;;;;;;;12.45;11.15;;;;;;;14.50;93.78;100731.72;5064051;28;20492;-78
2023/08/31 07:11:12;;;;;;;12.55;11.25;;;;;;;15.40;86.71;100734.75;5064459;28;20028;-78
2023/08/31 07:13:38;;;;;;;13.52;10.50;;;;;;;16.08;82.24;100738.03;5072583;28;20225;-79
2023/08/31 07:16:06;;;;;;;11.93;10.55;;;;;;;15.96;80.60;100742.66;5072790;28;20025;-78
2023/08/31 07:18:31;;;;;;;14.15;10.43;;;;;;;15.55;84.08;100739.75;5064023;28;20031;-79
2023/08/31 07:20:57;;;;;;;11.57;10.48;;;;;;;15.22;83.97;100735.66;5071489;28;20020;-78
2023/08/31 07:23:23;;;;;;;13.05;10.18;;;;;;;14.89;85.15;100731.53;5064040;28;20048;-79
2023/08/31 07:25:48;;;;;;;12.30;9.98;;;;;;;14.64;86.31;100743.25;5072078;28;20027;-78
2023/08/31 07:28:14;;;;;;;12.02;10.52;;;;;;;14.14;88.57;100736.91;5071433;28;20067;-78
2023/08/31 07:30:39;;;;;;;13.50;10.45;;;;;;;14.46;87.81;100752.22;5070968;28;20078;-79
2023/08/31 07:33:05;;;;;;;14.70;10.60;;;;;;;14.35;88.69;100749.19;5064739;28;20025;-78
2023/08/31 07:35:31;;;;;;;11.00;9.85;;;;;;;14.10;89.99;100744.66;5070912;28;20044;-79
2023/08/31 07:37:56;;;;;;;13.93;10.15;;;;;;;14.55;88.97;100764.41;5070862;28;20223;-78
2023/08/31 07:40:21;;;;;;;12.30;9.88;;;;;;;14.54;87.64;100755.47;5070082;28;20028;-78
2023/08/31 07:42:47;;;;;;;12.48;10.50;;;;;;;14.19;90.83;100756.03;5061109;28;20025;-78
2023/08/31 07:45:12;;;;;;;14.80;10.02;;;;;;;14.39;89.89;100763.09;5069214;28;20044;-78
2023/08/31 07:47:38;;;;;;;11.13;10.02;;;;;;;14.33;90.16;100756.72;5069348;28;20035;-78
2023/08/31 07:50:04;;;;;;;11.65;10.27;;;;;;;14.01;92.44;100764.94;5068789;28;20092;-78
2023/08/31 07:52:29;;;;;;;13.60;9.80;;;;;;;14.16;93.56;100761.88;5062147;28;20032;-78
2023/08/31 07:54:54;;;;;;;11.20;9.30;;;;;;;15.07;89.07;100766.72;5065298;28;20032;-78
2023/08/31 07:57:20;;;;;;;11.05;9.25;;;;;;;15.28;85.37;100778.94;5065091;28;20040;-78
2023/08/31 07:59:45;;;;;;;11.88;8.55;;;;;;;15.09;86.20;100780.03;5061770;28;20017;-78
2023/08/31 08:02:11;;;;;;;10.57;8.88;;;;;;;15.44;86.32;100776.63;5066390;28;20075;-79
2023/08/31 08:04:36;;;;;;;11.80;8.52;;;;;;;16.89;80.07;100785.41;5057041;28;20037;-78
2023/08/31 08:07:03;;;;;;;8.38;7.47;;;;;;;17.97;73.54;100770.19;5064048;28;20753;-78
2023/08/31 08:09:29;;;;;;;9.65;7.03;;;;;;;17.94;70.82;100778.84;5060202;28;20048;-78
2023/08/31 08:11:55;;;;;;;8.75;7.30;;;;;;;17.33;73.57;100776.75;5066323;28;20423;-77
2023/08/31 08:14:21;;;;;;;7.68;6.88;;;;;;;18.46;69.81;100786.75;5062692;28;20450;-77
2023/08/31 08:16:46;;;;;;;9.05;7.10;;;;;;;18.60;68.53;100781.75;5061162;28;20025;-78
2023/08/31 08:19:12;;;;;;;8.07;6.65;;;;;;;19.67;65.10;100794.16;5065359;28;20468;-78
2023/08/31 08:21:37;;;;;;;6.85;6.10;;;;;;;18.95;64.62;100796.13;5065975;28;20028;-77
2023/08/31 08:24:05;;;;;;;7.20;6.50;;;;;;;19.18;65.38;100786.84;5059901;28;20484;-78
2023/08/31 08:26:31;;;;;;;7.50;6.70;;;;;;;19.68;64.86;100792.22;5046448;28;20025;-78
2023/08/31 08:28:56;;;;;;;9.80;6.45;;;;;;;21.56;60.01;100796.47;5055487;28;20402;-77
2023/08/31 08:31:21;;;;;;;7.63;5.72;;;;;;;20.05;61.23;100796.94;5051327;28;20088;-79
2023/08/31 08:33:47;;;;;;;10.48;6.00;;;;;;;18.87;65.15;100799.28;5060298;28;20087;-79
2023/08/31 08:36:12;;;;;;;8.55;5.85;;;;;;;19.27;64.13;100800.84;5054642;28;20028;-78
2023/08/31 08:38:38;;;;;;;6.28;4.97;;;;;;;20.66;59.68;100803.84;5049171;28;20029;-78
2023/08/31 08:41:07;;;;;;;8.18;5.18;;;;;;;20.43;58.41;100808.66;5058788;28;20060;-78
2023/08/31 08:43:32;;;;;;;5.38;4.47;;;;;;;19.84;60.21;100804.13;5063841;28;20059;-78
2023/08/31 08:45:58;;;;;;;5.63;4.47;;;;;;;19.50;60.85;100807.91;5038370;28;20568;-79
2023/08/31 08:48:23;;;;;;;5.53;4.85;;;;;;;18.66;66.08;100804.47;5034090;28;20039;-77
2023/08/31 08:50:49;;;;;;;5.55;4.38;;;;;;;18.70;65.05;100808.34;5055895;28;20041;-79
2023/08/31 08:53:15;;;;;;;7.38;4.43;;;;;;;19.28;62.36;100820.78;5045816;28;20480;-77
2023/08/31 08:55:40;;;;;;;5.70;3.88;;;;;;;18.81;65.91;100809.28;5027811;28;20102;-78
2023/08/31 08:58:08;;;;;;;5.45;3.20;;;;;;;18.32;64.83;100810.81;5061611;28;20073;-77
2023/08/31 09:00:34;;;;;;;5.35;3.00;;;;;;;17.44;69.09;100808.53;5050389;28;20048;-78
2023/08/31 09:03:00;;;;;;;4.30;3.10;;;;;;;17.49;68.95;100803.19;5031810;28;20554;-78
2023/08/31 09:05:26;;;;;;;6.15;3.40;;;;;;;17.13;70.90;100811.47;5030174;28;20045;-77
2023/08/31 09:08:02;;;;;;;6.25;3.35;;;;;;;17.04;71.80;100815.66;5055291;28;20388;-78
2023/08/31 09:10:35;;;;;;;3.95;3.03;;;;;;;16.29;74.39;100820.00;5040387;28;20029;-77
2023/08/31 09:13:00;;;;;;;3.47;2.80;;;;;;;16.34;77.05;100820.94;5047425;28;20020;-77
2023/08/31 09:15:26;;;;;;;5.15;2.92;;;;;;;16.54;74.92;100818.94;5011535;28;20040;-80
2023/08/31 09:17:51;;;;;;;5.10;2.60;;;;;;;16.18;75.14;100814.31;5044389;28;20363;-78
2023/08/31 09:20:17;;;;;;;5.15;2.60;;;;;;;16.64;75.06;100810.97;5042372;28;20031;-79
2023/08/31 09:22:44;;;;;;;5.75;2.97;;;;;;;17.40;70.91;100818.25;5047766;28;20099;-79
2023/08/31 09:25:10;;;;;;;4.55;2.30;;;;;;;17.28;70.70;100830.00;5044934;28;20107;-77
2023/08/31 09:27:38;;;;;;;3.90;2.28;;;;;;;17.51;69.87;100822.81;5046059;28;20436;-79
2023/08/31 09:30:06;;;;;;;3.90;2.10;;;;;;;18.02;67.76;100827.53;5046288;28;20041;-78
2023/08/31 09:32:31;;;;;;;3.15;2.20;;;;;;;18.11;66.79;100822.47;5021541;28;20158;-78
2023/08/31 09:34:56;;;;;;;5.88;2.30;;;;;;;18.29;66.28;100824.09;5037138;28;20034;-79
2023/08/31 09:37:22;;;;;;;4.85;2.22;;;;;;;18.57;64.99;100834.06;5024085;28;20047;-76
2023/08/31 09:39:50;;;;;;;5.53;2.90;;;;;;;18.47;65.33;100842.09;5046739;28;20434;-77
2023/08/31 09:42:16;;;;;;;4.53;3.03;;;;;;;18.39;65.32;100842.50;5041604;28;20025;-78
2023/08/31 09:44:43;;;;;;;5.35;3.47;;;;;;;17.96;67.65;100839.38;5041087;28;20029;-78
2023/08/31 09:47:09;;;;;;;7.05;3.75;;;;;;;17.49;70.17;100849.44;5041617;28;20040;-77
2023/08/31 09:49:34;;;;;;;9.13;5.30;;;;;;;17.70;71.69;100845.19;5041181;28;20037;-77
2023/08/31 09:52:00;;;;;;;7.07;4.55;;;;;;;17.57;73.05;100845.50;4995633;28;20022;-77
2023/08/31 09:54:26;;;;;;;8.48;5.40;;;;;;;17.47;74.64;100853.50;5003489;28;20433;-78
2023/08/31 09:56:51;;;;;;;12.07;4.88;;;;;;;17.23;71.62;100851.66;5012489;28;20055;-78
2023/08/31 09:59:18;;;;;;;5.85;4.20;;;;;;;17.86;71.23;100853.63;5012593;28;20045;-76
2023/08/31 10:01:46;;;;;;;6.68;4.05;;;;;;;18.32;68.41;100846.25;5041257;28;20033;-78
2023/08/31 10:04:12;;;;;;;11.63;5.43;;;;;;;18.01;70.10;100853.91;5013369;28;20040;-78
2023/08/31 10:06:41;;;;;;;13.02;6.32;;;;;;;17.87;72.32;100855.28;5029153;28;20029;-78
2023/08/31 10:09:11;;;;;;;6.43;4.10;;;;;;;17.51;71.79;100865.53;5052559;28;20029;-77
2023/08/31 10:11:37;;;;;;;5.35;3.45;;;;;;;17.34;72.34;100863.56;5065511;28;20155;-77
2023/08/31 10:14:03;;;;;;;6.60;4.13;;;;;;;17.46;71.15;100860.81;5034513;28;20140;-78
2023/08/31 10:16:29;;;;;;;6.53;4.13;;;;;;;17.28;73.60;100853.69;5041826;28;20060;-78
2023/08/31 10:18:55;;;;;;;8.63;4.60;;;;;;;17.46;75.26;100860.00;5044536;28;20021;-77
2023/08/31 10:21:20;;;;;;;7.05;4.43;;;;;;;18.02;72.20;100861.03;5042137;28;20564;-77
2023/08/31 10:23:50;;;;;;;6.60;4.25;;;;;;;18.21;69.16;100860.78;5050964;28;20049;-77
2023/08/31 10:26:25;;;;;;;8.80;4.25;;;;;;;18.35;68.40;100852.28;5047276;28;20028;-77
2023/08/31 10:28:51;;;;;;;7.00;4.38;;;;;;;18.59;67.76;100855.63;5046053;28;20036;-78
2023/08/31 10:31:25;;;;;;;8.60;4.63;;;;;;;18.08;67.20;100855.66;5065061;28;20024;-78
2023/08/31 10:34:00;;;;;;;7.30;4.97;;;;;;;17.96;68.07;100848.38;5055210;28;20028;-77
2023/08/31 10:36:39;;;;;;;7.25;4.45;;;;;;;17.92;66.38;100847.22;5046973;28;20052;-77
2023/08/31 10:39:16;;;;;;;6.32;4.68;;;;;;;18.17;65.49;100846.03;5031750;28;20528;-77
2023/08/31 10:41:41;;;;;;;5.60;4.80;;;;;;;18.75;64.60;100848.47;5043596;28;20029;-76
2023/08/31 10:44:28;;;;;;;5.55;4.63;;;;;;;18.85;62.70;100847.78;5042488;28;20492;-77
2023/08/31 10:46:53;;;;;;;8.15;4.07;;;;;;;19.65;60.98;100840.00;5024717;28;20037;-77
2023/08/31 10:49:20;;;;;;;5.95;4.03;;;;;;;20.68;58.55;100839.97;5044788;28;20103;-77
2023/08/31 10:51:47;;;;;;;5.88;4.28;;;;;;;21.56;55.11;100832.06;5043439;28;20136;-76
2023/08/31 10:54:25;;;;;;;5.43;3.80;;;;;;;22.78;51.80;100831.47;5039404;28;20732;-77
2023/08/31 10:57:11;;;;;;;4.00;3.38;;;;;;;23.67;47.67;100831.84;5053207;28;20025;-76
2023/08/31 10:59:44;;;;;;;7.70;4.45;;;;;;;22.33;51.43;100828.53;5047128;28;20031;-77
2023/08/31 11:02:10;;;;;;;4.85;4.10;;;;;;;22.22;51.80;100827.75;5040248;28;20074;-77
2023/08/31 11:04:55;;;;;;;5.55;4.32;;;;;;;22.33;52.50;100825.78;5042853;28;20438;-77
2023/08/31 11:07:24;;;;;;;5.55;4.20;;;;;;;21.33;52.32;100828.78;5045338;28;20033;-77
2023/08/31 11:09:49;;;;;;;5.35;4.10;;;;;;;20.92;53.79;100823.16;5052816;28;20025;-77
2023/08/31 11:12:14;;;;;;;6.30;4.10;;;;;;;20.21;57.52;100821.63;5033939;28;20089;-77